Time;durP1;ratioP1;P1;durP2;ratioP2;P2;SDS_P1;SDS_P2;PMS_P1;PMS_P2;Temp;Humidity;BMP_temperature;BMP_pressure;BME280_temperature;BME280_humidity;BME280_pressure;Samples;Min_cycle;Max_cycle;Signal;HPM_P1;HPM_P2
2022/09/18 00:01:37;;;;;;;2.65;1.08;;;15.40;65.00;;;;;;5093198;28;20047;-49
2022/09/18 00:04:06;;;;;;;3.85;1.15;;;15.40;65.30;;;;;;5083790;28;20048;-51
2022/09/18 00:06:37;;;;;;;2.88;0.80;;;15.40;65.50;;;;;;5091617;28;20415;-48
2022/09/18 00:09:07;;;;;;;2.10;1.50;;;15.40;65.50;;;;;;5092386;28;20092;-46
2022/09/18 00:11:39;;;;;;;4.30;0.90;;;15.40;65.40;;;;;;5092991;28;20040;-48
2022/09/18 00:14:07;;;;;;;3.85;0.73;;;15.40;65.50;;;;;;5083661;28;20051;-46
2022/09/18 00:16:36;;;;;;;4.07;0.93;;;15.40;65.30;;;;;;5087751;28;20068;-50
2022/09/18 00:19:06;;;;;;;3.13;0.85;;;15.40;65.40;;;;;;5074370;28;20040;-51
2022/09/18 00:21:36;;;;;;;2.80;1.05;;;15.40;65.80;;;;;;5093423;28;20050;-50
2022/09/18 00:24:03;;;;;;;2.35;0.60;;;15.40;65.60;;;;;;5081738;28;20040;-46
2022/09/18 00:26:34;;;;;;;3.47;0.55;;;15.40;65.70;;;;;;5072530;28;20779;-48
2022/09/18 00:29:02;;;;;;;2.25;0.75;;;15.40;65.70;;;;;;5095434;28;20044;-48
2022/09/18 00:31:31;;;;;;;3.80;0.98;;;15.40;65.70;;;;;;5091399;28;20036;-48
2022/09/18 00:34:01;;;;;;;3.13;0.98;;;15.40;65.80;;;;;;5090209;28;20523;-47
2022/09/18 00:36:29;;;;;;;4.53;0.80;;;15.40;65.80;;;;;;5077139;28;20048;-47
2022/09/18 00:38:58;;;;;;;3.75;1.27;;;15.40;65.80;;;;;;5071002;28;20060;-50
2022/09/18 00:41:28;;;;;;;2.97;0.90;;;15.40;65.70;;;;;;5094197;28;20075;-47
2022/09/18 00:44:28;;;;;;;1.85;1.10;;;15.40;65.80;;;;;;5082869;28;20135;-47
2022/09/18 00:47:08;;;;;;;1.15;0.70;;;15.40;66.20;;;;;;5090294;28;20050;-48
2022/09/18 00:49:55;;;;;;;3.30;1.10;;;15.40;66.00;;;;;;5090759;28;20048;-48
2022/09/18 00:52:26;;;;;;;4.53;0.70;;;15.40;66.00;;;;;;5082220;28;20044;-48
2022/09/18 00:55:07;;;;;;;5.28;0.73;;;15.40;65.70;;;;;;5090518;28;20047;-47
2022/09/18 00:57:47;;;;;;;2.47;0.60;;;15.40;65.60;;;;;;5085682;28;20044;-48
2022/09/18 01:00:16;;;;;;;2.58;0.90;;;15.40;65.80;;;;;;5079465;28;20504;-48
2022/09/18 01:02:44;;;;;;;5.88;0.85;;;15.40;65.50;;;;;;5070140;28;20044;-46
2022/09/18 01:05:20;;;;;;;1.73;0.68;;;15.40;65.50;;;;;;5077267;28;20044;-49
2022/09/18 01:08:07;;;;;;;2.45;0.85;;;15.40;65.60;;;;;;5089981;28;20719;-51
2022/09/18 01:10:57;;;;;;;4.95;1.05;;;15.40;66.00;;;;;;5076537;28;20501;-45
2022/09/18 01:13:56;;;;;;;1.52;0.75;;;15.40;66.10;;;;;;5070528;28;20044;-51
2022/09/18 01:16:35;;;;;;;1.50;0.77;;;15.40;66.20;;;;;;5085994;28;20048;-51
2022/09/18 01:19:16;;;;;;;2.28;0.70;;;15.40;65.90;;;;;;5088833;28;20440;-49
2022/09/18 01:21:53;;;;;;;2.75;1.30;;;15.40;66.50;;;;;;5080238;28;20139;-50
2022/09/18 01:24:46;;;;;;;4.13;1.08;;;15.40;66.30;;;;;;5074937;28;20040;-46
2022/09/18 01:27:34;;;;;;;1.50;1.15;;;15.40;66.80;;;;;;5104478;28;20055;-48
2022/09/18 01:30:07;;;;;;;4.82;1.60;;;15.40;67.00;;;;;;5082549;28;20123;-47
2022/09/18 01:33:02;;;;;;;1.85;1.52;;;15.30;66.70;;;;;;5103734;28;20127;-48
2022/09/18 01:35:38;;;;;;;4.10;1.52;;;15.30;67.20;;;;;;5077489;28;20032;-46
2022/09/18 01:38:19;;;;;;;3.55;1.73;;;15.30;66.90;;;;;;5068663;28;20041;-49
2022/09/18 01:40:50;;;;;;;3.42;1.75;;;15.30;66.60;;;;;;5085308;28;20062;-50
2022/09/18 01:43:19;;;;;;;6.40;2.10;;;15.30;67.00;;;;;;5087437;28;20044;-46
2022/09/18 01:45:52;;;;;;;3.80;2.30;;;15.30;67.00;;;;;;5091104;28;20126;-48
2022/09/18 01:48:29;;;;;;;3.60;1.75;;;15.30;67.20;;;;;;5088862;28;20074;-50
2022/09/18 01:51:11;;;;;;;5.05;1.83;;;15.30;67.20;;;;;;5088429;28;20126;-47
2022/09/18 01:53:42;;;;;;;2.65;1.65;;;15.30;67.80;;;;;;5091286;28;20081;-47
2022/09/18 01:56:18;;;;;;;4.93;1.88;;;15.30;67.40;;;;;;5085207;28;20079;-46
2022/09/18 01:58:48;;;;;;;2.50;2.10;;;15.30;67.60;;;;;;5101376;28;20047;-48
2022/09/18 02:01:19;;;;;;;3.50;2.00;;;15.30;67.80;;;;;;5088579;28;20127;-49
2022/09/18 02:03:56;;;;;;;2.70;2.10;;;15.30;67.80;;;;;;5090078;28;20040;-49
2022/09/18 02:06:35;;;;;;;6.95;2.10;;;15.30;68.10;;;;;;5080179;28;20043;-47
2022/09/18 02:09:02;;;;;;;4.63;2.33;;;15.30;67.90;;;;;;5089268;28;20064;-47
2022/09/18 02:11:39;;;;;;;3.92;1.88;;;15.30;67.60;;;;;;5090257;28;20054;-49
2022/09/18 02:14:29;;;;;;;2.45;1.40;;;15.40;67.90;;;;;;5087460;28;20043;-46
2022/09/18 02:17:16;;;;;;;3.40;1.60;;;15.30;68.30;;;;;;5069344;28;20519;-48
2022/09/18 02:19:59;;;;;;;3.63;2.15;;;15.30;68.30;;;;;;5083960;28;20070;-47
2022/09/18 02:22:31;;;;;;;4.05;1.98;;;15.30;68.10;;;;;;5071139;28;20075;-48
2022/09/18 02:25:05;;;;;;;4.10;1.50;;;15.30;67.70;;;;;;5084910;28;20066;-48
2022/09/18 02:27:37;;;;;;;2.63;1.73;;;15.30;68.30;;;;;;5092148;28;20142;-51
2022/09/18 02:30:06;;;;;;;2.05;1.77;;;15.30;68.00;;;;;;5095457;28;20127;-51
2022/09/18 02:32:37;;;;;;;2.97;1.60;;;15.30;68.10;;;;;;5087889;28;20044;-47
2022/09/18 02:35:08;;;;;;;4.97;2.00;;;15.30;68.00;;;;;;5085419;28;20048;-48
2022/09/18 02:37:42;;;;;;;3.35;1.38;;;15.30;68.00;;;;;;5091518;28;20672;-51
2022/09/18 02:40:26;;;;;;;2.00;1.42;;;15.30;68.50;;;;;;5097748;28;20079;-47
2022/09/18 02:43:26;;;;;;;2.47;1.33;;;15.30;69.10;;;;;;5091054;28;20039;-52
2022/09/18 02:46:20;;;;;;;2.25;1.30;;;15.20;69.00;;;;;;5087554;28;20051;-47
2022/09/18 02:49:00;;;;;;;3.05;1.08;;;15.20;68.70;;;;;;5093816;28;20069;-46
2022/09/18 02:51:30;;;;;;;3.17;1.00;;;15.10;68.10;;;;;;5085336;28;20036;-51
2022/09/18 02:54:44;;;;;;;3.17;0.98;;;15.10;68.40;;;;;;5092336;28;20089;-46
2022/09/18 02:57:19;;;;;;;1.95;0.88;;;15.10;68.90;;;;;;5103869;28;20071;-50
2022/09/18 02:59:50;;;;;;;3.08;1.20;;;15.10;68.30;;;;;;5096364;28;20039;-47
2022/09/18 03:02:19;;;;;;;3.17;1.55;;;15.00;68.40;;;;;;5082429;28;20067;-45
2022/09/18 03:04:46;;;;;;;2.75;1.15;;;15.00;68.40;;;;;;5091670;28;20144;-45
2022/09/18 03:07:25;;;;;;;3.78;1.25;;;15.00;68.60;;;;;;5080589;28;20048;-49
2022/09/18 03:09:57;;;;;;;3.33;1.20;;;15.00;68.60;;;;;;5082548;28;20040;-45
2022/09/18 03:12:24;;;;;;;2.50;1.20;;;15.00;68.90;;;;;;5091017;28;20071;-47
2022/09/18 03:14:50;;;;;;;2.53;1.17;;;15.00;68.90;;;;;;5092505;28;20480;-48
2022/09/18 03:17:17;;;;;;;3.83;1.20;;;15.00;69.00;;;;;;5089028;28;20562;-52
2022/09/18 03:19:52;;;;;;;1.45;1.15;;;15.00;69.10;;;;;;5087479;28;20135;-48
2022/09/18 03:22:19;;;;;;;4.30;1.20;;;15.00;69.20;;;;;;5078226;28;20090;-48
2022/09/18 03:24:49;;;;;;;2.15;1.40;;;15.00;69.30;;;;;;5071623;28;20037;-46
2022/09/18 03:27:17;;;;;;;3.42;1.50;;;15.00;69.60;;;;;;5095624;28;20626;-51
2022/09/18 03:29:48;;;;;;;3.00;1.70;;;15.00;69.60;;;;;;5087488;28;20055;-48
2022/09/18 03:32:17;;;;;;;5.70;2.30;;;15.00;69.70;;;;;;5095385;28;20040;-48
2022/09/18 03:34:46;;;;;;;3.22;2.38;;;15.00;69.60;;;;;;5082534;28;20037;-48
2022/09/18 03:37:15;;;;;;;4.22;2.40;;;15.00;69.80;;;;;;5092107;28;20118;-47
2022/09/18 03:39:45;;;;;;;3.35;2.88;;;15.00;69.80;;;;;;5084008;28;20049;-46
2022/09/18 03:42:13;;;;;;;4.80;2.88;;;15.00;69.90;;;;;;5080850;28;20078;-47
2022/09/18 03:44:42;;;;;;;3.92;2.83;;;15.00;70.00;;;;;;5092491;28;20071;-52
2022/09/18 03:47:27;;;;;;;4.80;2.72;;;15.00;70.10;;;;;;5089143;28;20051;-46
2022/09/18 03:50:01;;;;;;;5.20;3.03;;;15.00;71.00;;;;;;5090523;28;20040;-50
2022/09/18 03:52:31;;;;;;;3.10;2.53;;;15.00;70.80;;;;;;5089637;28;20036;-46
2022/09/18 03:55:06;;;;;;;3.80;2.58;;;15.00;70.40;;;;;;5112447;27;20036;-51
2022/09/18 03:57:52;;;;;;;5.40;2.78;;;15.00;70.40;;;;;;5091285;28;20051;-48
2022/09/18 04:00:31;;;;;;;5.40;2.97;;;15.00;70.40;;;;;;5090057;28;20048;-49
2022/09/18 04:03:05;;;;;;;7.82;2.10;;;15.00;70.40;;;;;;5089790;28;20079;-49
2022/09/18 04:05:50;;;;;;;4.72;1.55;;;15.00;70.40;;;;;;5092524;28;20568;-47
2022/09/18 04:08:37;;;;;;;3.35;2.58;;;15.00;70.50;;;;;;5079880;28;20048;-48
2022/09/18 04:11:16;;;;;;;2.92;1.92;;;15.10;70.60;;;;;;5072384;28;20139;-49
2022/09/18 04:13:42;;;;;;;4.25;2.00;;;15.00;70.50;;;;;;5097683;28;20093;-49
2022/09/18 04:16:12;;;;;;;2.65;1.65;;;15.10;70.60;;;;;;5086383;28;20044;-46
2022/09/18 04:18:43;;;;;;;5.38;1.77;;;15.10;70.60;;;;;;5081706;28;20047;-50
2022/09/18 04:21:13;;;;;;;3.88;1.60;;;15.10;70.60;;;;;;5069158;28;20580;-47
2022/09/18 04:23:39;;;;;;;2.38;2.00;;;15.10;70.70;;;;;;5083140;28;20113;-50
2022/09/18 04:26:11;;;;;;;5.15;1.60;;;15.10;70.80;;;;;;5086251;28;20135;-51
2022/09/18 04:28:45;;;;;;;3.63;0.95;;;15.10;70.70;;;;;;5084526;28;20051;-49
2022/09/18 04:31:15;;;;;;;2.55;1.10;;;15.10;70.80;;;;;;5092824;28;20040;-50
2022/09/18 04:33:42;;;;;;;2.50;1.27;;;15.10;71.10;;;;;;5090844;28;20044;-49
2022/09/18 04:36:11;;;;;;;3.38;1.40;;;15.10;70.90;;;;;;5081124;28;20401;-49
2022/09/18 04:38:40;;;;;;;1.73;0.95;;;15.10;70.90;;;;;;5089686;28;20151;-47
2022/09/18 04:41:10;;;;;;;4.18;0.98;;;15.10;71.10;;;;;;5086625;28;20047;-48
2022/09/18 04:43:37;;;;;;;3.28;0.70;;;15.10;70.90;;;;;;5087971;28;20478;-47
2022/09/18 04:46:06;;;;;;;2.33;0.90;;;15.10;70.90;;;;;;5080816;28;20048;-50
2022/09/18 04:48:33;;;;;;;2.25;0.73;;;15.10;71.00;;;;;;5091978;28;20455;-46
2022/09/18 04:51:03;;;;;;;3.85;1.05;;;15.10;70.90;;;;;;5093712;28;20044;-47
2022/09/18 04:53:44;;;;;;;2.03;0.95;;;15.10;70.90;;;;;;5086246;28;20123;-47
2022/09/18 04:56:11;;;;;;;1.95;0.77;;;15.10;70.80;;;;;;5088200;28;20044;-48
2022/09/18 04:58:39;;;;;;;3.20;0.75;;;15.10;70.90;;;;;;5090157;28;20048;-51
2022/09/18 05:01:06;;;;;;;4.80;0.95;;;15.10;70.80;;;;;;5088451;28;20040;-47
2022/09/18 05:03:33;;;;;;;2.80;1.20;;;15.10;70.90;;;;;;5083635;28;20772;-51
2022/09/18 05:05:59;;;;;;;3.63;1.33;;;15.10;70.80;;;;;;5085256;28;20083;-47
2022/09/18 05:08:28;;;;;;;3.25;1.63;;;15.10;70.90;;;;;;5098721;28;20420;-47
2022/09/18 05:10:55;;;;;;;7.65;1.80;;;15.10;70.90;;;;;;5094139;28;20039;-45
2022/09/18 05:13:21;;;;;;;3.30;1.30;;;15.10;70.90;;;;;;5089675;28;20076;-47
2022/09/18 05:15:57;;;;;;;2.95;1.15;;;15.00;70.80;;;;;;5088334;28;20089;-46
2022/09/18 05:18:27;;;;;;;3.88;1.17;;;15.10;70.90;;;;;;5092844;27;20045;-47
2022/09/18 05:21:01;;;;;;;3.70;1.15;;;15.00;70.70;;;;;;5089329;28;20044;-49
2022/09/18 05:23:29;;;;;;;2.58;1.67;;;15.10;70.90;;;;;;5090297;28;20085;-49
2022/09/18 05:25:56;;;;;;;3.15;1.20;;;15.00;70.70;;;;;;5088756;28;20412;-47
2022/09/18 05:28:23;;;;;;;2.67;0.95;;;15.00;70.70;;;;;;5084251;28;20050;-51
2022/09/18 05:30:52;;;;;;;2.63;1.08;;;15.00;70.70;;;;;;5089126;28;20036;-47
2022/09/18 05:33:18;;;;;;;3.25;1.02;;;15.00;70.70;;;;;;5090726;28;20550;-51
2022/09/18 05:35:53;;;;;;;3.08;0.70;;;15.10;70.80;;;;;;5088448;28;20689;-47
2022/09/18 05:38:20;;;;;;;4.15;1.10;;;15.10;71.20;;;;;;5090142;28;20072;-48
2022/09/18 05:40:50;;;;;;;2.42;1.17;;;15.00;70.80;;;;;;5089538;28;20035;-52
2022/09/18 05:43:17;;;;;;;3.63;1.60;;;15.00;71.00;;;;;;5074004;28;20118;-49
2022/09/18 05:45:47;;;;;;;3.92;1.42;;;15.00;71.00;;;;;;5089197;28;20551;-50
2022/09/18 05:48:20;;;;;;;2.33;1.60;;;15.00;71.00;;;;;;5090579;28;20100;-50
2022/09/18 05:50:47;;;;;;;4.03;1.90;;;15.10;71.10;;;;;;5088437;28;20097;-50
2022/09/18 05:53:20;;;;;;;3.67;1.30;;;15.10;71.20;;;;;;5076214;28;20420;-50
2022/09/18 05:55:58;;;;;;;5.07;1.65;;;15.10;71.30;;;;;;5087397;28;20139;-51
2022/09/18 05:58:25;;;;;;;6.55;1.70;;;15.10;71.40;;;;;;5081421;28;20048;-52
2022/09/18 06:00:57;;;;;;;5.53;1.90;;;15.10;71.30;;;;;;5092031;28;20126;-54
2022/09/18 06:03:34;;;;;;;1.70;1.27;;;15.20;71.50;;;;;;5097151;28;20563;-52
2022/09/18 06:06:00;;;;;;;5.10;2.00;;;15.10;71.10;;;;;;5097504;28;20085;-51
2022/09/18 06:08:27;;;;;;;2.60;1.50;;;15.10;71.10;;;;;;5089506;28;20047;-49
2022/09/18 06:10:54;;;;;;;4.28;1.65;;;15.20;71.20;;;;;;5092723;28;20087;-53
2022/09/18 06:13:23;;;;;;;4.63;1.67;;;15.10;71.10;;;;;;5091273;28;20067;-53
2022/09/18 06:15:51;;;;;;;4.20;1.45;;;15.20;71.00;;;;;;5074915;28;20045;-50
2022/09/18 06:18:45;;;;;;;5.18;1.98;;;15.20;71.00;;;;;;5084100;28;20440;-50
2022/09/18 06:21:14;;;;;;;8.18;1.98;;;15.20;70.90;;;;;;5088774;28;20060;-50
2022/09/18 06:23:42;;;;;;;5.22;2.17;;;15.20;70.80;;;;;;5075983;28;20420;-50
2022/09/18 06:26:19;;;;;;;3.03;1.15;;;15.20;70.70;;;;;;5093368;28;20047;-50
2022/09/18 06:28:50;;;;;;;3.97;1.48;;;15.20;70.60;;;;;;5084439;28;20409;-52
2022/09/18 06:31:17;;;;;;;3.08;1.30;;;15.20;70.70;;;;;;5089034;28;20041;-50
2022/09/18 06:34:04;;;;;;;3.05;1.33;;;15.30;70.80;;;;;;5065701;28;20526;-52
2022/09/18 06:36:30;;;;;;;3.70;1.67;;;15.30;70.70;;;;;;5083819;28;20044;-50
2022/09/18 06:39:16;;;;;;;3.00;1.30;;;15.30;70.80;;;;;;5075375;28;20068;-49
2022/09/18 06:41:46;;;;;;;3.75;1.65;;;15.30;70.90;;;;;;5099295;28;20052;-53
2022/09/18 06:44:24;;;;;;;1.70;1.40;;;15.30;70.90;;;;;;5093218;28;20143;-53
2022/09/18 06:47:02;;;;;;;3.30;1.80;;;15.40;70.90;;;;;;5091112;28;20055;-50
2022/09/18 06:49:37;;;;;;;2.80;1.70;;;15.40;70.70;;;;;;5091220;28;20059;-50
2022/09/18 06:52:04;;;;;;;3.35;1.70;;;15.40;70.70;;;;;;5091152;28;20043;-50
2022/09/18 06:54:33;;;;;;;5.63;1.25;;;15.50;70.60;;;;;;5087693;28;20542;-50
2022/09/18 06:57:01;;;;;;;3.10;1.73;;;15.50;70.50;;;;;;5086987;28;20412;-50
2022/09/18 06:59:29;;;;;;;2.75;1.52;;;15.50;70.50;;;;;;5071400;28;20079;-50
2022/09/18 07:01:56;;;;;;;2.05;1.30;;;15.60;70.60;;;;;;5089969;28;20055;-54
2022/09/18 07:04:42;;;;;;;2.17;1.33;;;15.60;70.50;;;;;;5091057;28;20457;-51
2022/09/18 07:07:09;;;;;;;4.30;1.77;;;15.60;70.40;;;;;;5089989;28;20048;-53
2022/09/18 07:09:36;;;;;;;4.45;1.27;;;15.70;70.50;;;;;;5090500;28;20059;-50
2022/09/18 07:12:10;;;;;;;4.57;1.77;;;15.70;70.30;;;;;;5075791;28;20044;-52
2022/09/18 07:14:46;;;;;;;3.78;1.85;;;15.70;70.10;;;;;;5085020;28;20040;-51
2022/09/18 07:17:14;;;;;;;3.13;1.75;;;15.70;70.00;;;;;;5078249;28;20584;-51
2022/09/18 07:19:48;;;;;;;2.45;1.30;;;15.80;70.20;;;;;;5091318;28;20539;-51
2022/09/18 07:22:17;;;;;;;1.85;1.33;;;15.80;70.30;;;;;;5090061;28;20178;-52
2022/09/18 07:24:46;;;;;;;4.85;1.95;;;15.90;70.30;;;;;;5083681;28;20102;-51
2022/09/18 07:27:13;;;;;;;2.10;1.40;;;15.90;70.10;;;;;;5089226;28;20044;-50
2022/09/18 07:29:42;;;;;;;4.60;1.38;;;15.90;70.00;;;;;;5091794;28;20044;-50
2022/09/18 07:32:12;;;;;;;4.25;1.85;;;16.00;70.20;;;;;;5092646;28;20040;-52
2022/09/18 07:34:42;;;;;;;2.45;1.52;;;16.00;70.30;;;;;;5095248;28;20083;-49
2022/09/18 07:37:12;;;;;;;3.10;1.83;;;16.10;69.90;;;;;;5089122;28;22458;-52
2022/09/18 07:39:43;;;;;;;3.53;1.45;;;16.10;69.80;;;;;;5093912;28;20089;-54
2022/09/18 07:42:28;;;;;;;1.77;1.02;;;16.20;69.60;;;;;;5082942;28;20620;-54
2022/09/18 07:44:55;;;;;;;4.28;1.20;;;16.20;69.50;;;;;;5075009;28;20085;-51
2022/09/18 07:47:26;;;;;;;1.85;1.15;;;16.20;69.30;;;;;;5090853;28;20727;-51
2022/09/18 07:49:53;;;;;;;2.00;1.10;;;16.30;69.40;;;;;;5089706;28;20043;-53
2022/09/18 07:52:20;;;;;;;2.97;1.45;;;16.30;69.40;;;;;;5072576;28;20131;-54
2022/09/18 07:54:50;;;;;;;1.98;1.20;;;16.30;69.40;;;;;;5094036;28;20048;-53
2022/09/18 07:57:27;;;;;;;2.25;1.77;;;16.40;69.20;;;;;;5092135;28;20063;-49
2022/09/18 08:00:17;;;;;;;4.40;1.77;;;16.40;69.00;;;;;;5094239;28;20051;-49
2022/09/18 08:02:48;;;;;;;2.50;1.92;;;16.50;69.00;;;;;;5089065;28;20135;-50
2022/09/18 08:05:35;;;;;;;2.67;2.15;;;16.50;68.80;;;;;;5091974;28;20048;-53
2022/09/18 08:08:06;;;;;;;3.90;2.50;;;16.50;68.70;;;;;;5091550;28;20067;-49
2022/09/18 08:10:51;;;;;;;3.63;2.70;;;16.50;68.70;;;;;;5082484;28;20063;-53
2022/09/18 08:13:53;;;;;;;2.80;2.60;;;16.50;68.50;;;;;;5048646;28;20146;-50
2022/09/18 08:16:42;;;;;;;3.50;2.90;;;16.50;68.30;;;;;;5085791;28;20063;-50
2022/09/18 08:19:16;;;;;;;2.67;2.17;;;16.50;68.40;;;;;;5088059;28;20044;-49
2022/09/18 08:21:52;;;;;;;3.00;2.22;;;16.50;68.60;;;;;;5077259;28;20123;-51
2022/09/18 08:24:20;;;;;;;3.70;2.17;;;16.50;68.60;;;;;;5069684;28;20055;-48
2022/09/18 08:26:48;;;;;;;3.08;1.67;;;16.50;68.40;;;;;;5078542;28;20076;-49
2022/09/18 08:29:17;;;;;;;4.88;2.10;;;16.60;68.60;;;;;;5072436;28;20045;-49
2022/09/18 08:31:51;;;;;;;4.57;1.92;;;16.60;68.50;;;;;;5085146;28;20064;-49
2022/09/18 08:34:20;;;;;;;2.67;1.75;;;16.60;68.40;;;;;;5089916;28;20046;-54
2022/09/18 08:36:47;;;;;;;3.42;1.50;;;16.60;68.80;;;;;;5088250;28;20094;-51
2022/09/18 08:39:20;;;;;;;1.52;1.40;;;16.60;68.00;;;;;;5083544;28;20041;-50
2022/09/18 08:42:21;;;;;;;5.07;1.77;;;16.60;67.90;;;;;;5087121;28;20051;-54
2022/09/18 08:44:58;;;;;;;2.40;1.25;;;16.60;68.30;;;;;;5092778;28;20039;-51
2022/09/18 08:47:49;;;;;;;4.28;1.38;;;16.60;68.00;;;;;;5088887;28;20070;-53
2022/09/18 08:50:23;;;;;;;3.35;1.50;;;16.60;69.50;;;;;;5081514;28;20397;-53
2022/09/18 08:53:11;;;;;;;2.38;1.50;;;16.50;68.80;;;;;;5073474;28;20118;-49
2022/09/18 08:55:59;;;;;;;2.58;1.40;;;16.40;69.50;;;;;;5091282;28;20097;-50
2022/09/18 08:58:53;;;;;;;2.08;1.70;;;16.40;69.00;;;;;;5084016;28;20040;-53
2022/09/18 09:01:23;;;;;;;2.80;1.42;;;16.40;69.20;;;;;;5068391;28;20730;-53
2022/09/18 09:04:21;;;;;;;3.40;1.92;;;16.30;69.20;;;;;;5102245;27;20098;-49
2022/09/18 09:07:24;;;;;;;1.77;1.40;;;16.40;69.80;;;;;;5079728;28;20060;-50
2022/09/18 09:10:09;;;;;;;1.77;1.23;;;16.40;69.80;;;;;;5087529;28;20075;-50
2022/09/18 09:13:18;;;;;;;2.88;1.30;;;16.50;69.70;;;;;;5087107;28;20101;-49
2022/09/18 09:16:09;;;;;;;1.88;1.33;;;16.50;69.40;;;;;;5070070;28;20137;-49
2022/09/18 09:18:59;;;;;;;2.45;1.70;;;16.60;68.90;;;;;;5077349;28;20493;-49
2022/09/18 09:21:56;;;;;;;1.35;1.20;;;16.70;68.70;;;;;;5076038;28;20070;-53
2022/09/18 09:24:35;;;;;;;2.25;1.33;;;16.70;68.60;;;;;;5097694;28;20133;-51
2022/09/18 09:27:21;;;;;;;1.73;1.30;;;16.70;67.70;;;;;;5090435;28;20048;-49
2022/09/18 09:30:17;;;;;;;1.63;1.17;;;16.80;67.60;;;;;;5085899;28;20055;-51
2022/09/18 09:33:22;;;;;;;2.33;1.35;;;16.90;67.60;;;;;;5081804;28;20519;-49
2022/09/18 09:36:17;;;;;;;1.20;1.00;;;16.90;67.60;;;;;;5086226;28;20054;-50
2022/09/18 09:38:52;;;;;;;3.33;1.40;;;17.00;67.40;;;;;;5088439;28;20044;-53
2022/09/18 09:41:26;;;;;;;2.33;2.15;;;17.00;67.40;;;;;;5104089;28;20505;-50
2022/09/18 09:44:15;;;;;;;2.67;1.48;;;17.00;67.10;;;;;;5088042;28;20036;-50
2022/09/18 09:47:04;;;;;;;4.40;1.70;;;17.10;67.00;;;;;;5067579;28;20102;-48
2022/09/18 09:49:44;;;;;;;2.28;1.30;;;17.10;66.80;;;;;;5091072;28;20054;-53
2022/09/18 09:52:23;;;;;;;7.40;1.80;;;17.10;66.70;;;;;;5087774;28;20136;-49
2022/09/18 09:55:07;;;;;;;2.30;1.40;;;17.10;67.40;;;;;;5084674;28;20644;-48
2022/09/18 09:57:58;;;;;;;4.65;2.05;;;17.00;66.60;;;;;;5084245;28;20044;-49
2022/09/18 10:00:33;;;;;;;1.83;1.48;;;17.00;66.90;;;;;;5091000;28;20051;-50
2022/09/18 10:03:39;;;;;;;4.20;1.77;;;17.00;66.60;;;;;;5087714;28;20131;-49
2022/09/18 10:06:16;;;;;;;3.40;2.05;;;17.00;66.30;;;;;;5071134;28;20056;-50
2022/09/18 10:09:01;;;;;;;2.35;1.67;;;16.90;66.40;;;;;;5089904;28;20475;-48
2022/09/18 10:11:31;;;;;;;3.45;1.67;;;17.00;66.40;;;;;;5087524;28;20496;-52
2022/09/18 10:14:05;;;;;;;2.42;2.20;;;17.00;66.40;;;;;;5079357;28;20059;-50
2022/09/18 10:16:37;;;;;;;1.70;1.60;;;17.00;66.50;;;;;;5081570;28;20497;-51
2022/09/18 10:19:10;;;;;;;2.63;1.65;;;17.00;66.20;;;;;;5091006;28;20101;-48
2022/09/18 10:21:38;;;;;;;2.28;1.38;;;17.00;66.20;;;;;;5085895;28;20110;-53
2022/09/18 10:24:34;;;;;;;3.08;1.88;;;17.00;66.00;;;;;;5088479;28;20051;-48
2022/09/18 10:27:12;;;;;;;1.52;1.42;;;17.00;66.20;;;;;;5085840;28;20059;-49
2022/09/18 10:29:42;;;;;;;1.92;1.60;;;17.00;66.30;;;;;;5091054;28;20039;-52
2022/09/18 10:32:31;;;;;;;2.97;1.45;;;16.90;66.70;;;;;;5086730;28;20124;-48
2022/09/18 10:35:00;;;;;;;3.22;1.85;;;16.90;66.40;;;;;;5090411;28;20047;-49
2022/09/18 10:37:29;;;;;;;3.17;1.48;;;16.90;66.50;;;;;;5092458;28;20508;-51
2022/09/18 10:40:28;;;;;;;1.88;1.70;;;16.80;66.90;;;;;;5090915;28;20056;-51
2022/09/18 10:43:01;;;;;;;2.05;1.35;;;16.90;67.30;;;;;;5084666;28;20431;-51
2022/09/18 10:45:36;;;;;;;1.77;1.67;;;16.90;67.20;;;;;;5094873;28;20047;-52
2022/09/18 10:48:26;;;;;;;2.03;1.48;;;16.80;67.10;;;;;;5092040;28;20050;-49
2022/09/18 10:51:00;;;;;;;3.95;1.63;;;16.90;67.10;;;;;;5090178;28;20055;-51
2022/09/18 10:53:41;;;;;;;2.60;1.90;;;16.90;67.10;;;;;;5087049;28;20056;-50
2022/09/18 10:56:18;;;;;;;2.67;1.63;;;16.90;66.80;;;;;;5094709;28;20098;-51
2022/09/18 10:58:46;;;;;;;3.08;1.73;;;16.90;67.30;;;;;;5084110;28;20051;-52
2022/09/18 11:01:13;;;;;;;3.15;1.83;;;16.90;67.60;;;;;;5087514;28;20048;-48
2022/09/18 11:03:58;;;;;;;1.80;1.70;;;16.80;68.10;;;;;;5085025;28;20453;-49
2022/09/18 11:06:32;;;;;;;4.90;1.98;;;16.80;68.40;;;;;;5104104;28;20043;-50
2022/09/18 11:09:10;;;;;;;2.08;1.88;;;16.80;68.30;;;;;;5089633;28;20134;-48
2022/09/18 11:11:45;;;;;;;1.65;1.30;;;16.80;68.30;;;;;;5086014;28;20177;-49
2022/09/18 11:14:29;;;;;;;2.13;1.92;;;16.80;68.90;;;;;;5093855;28;20036;-51
2022/09/18 11:17:06;;;;;;;6.05;2.10;;;16.80;69.30;;;;;;5081252;28;20051;-53
2022/09/18 11:19:38;;;;;;;2.38;2.15;;;16.80;69.80;;;;;;5091631;28;20051;-53
2022/09/18 11:22:43;;;;;;;2.13;1.98;;;16.90;69.60;;;;;;5092574;28;20174;-52
2022/09/18 11:25:25;;;;;;;2.00;1.67;;;17.10;69.20;;;;;;5089109;28;20052;-51
2022/09/18 11:27:59;;;;;;;2.53;2.05;;;17.10;68.40;;;;;;5090591;28;20140;-48
2022/09/18 11:30:35;;;;;;;2.95;2.28;;;17.20;68.50;;;;;;5085435;28;20048;-50
2022/09/18 11:33:27;;;;;;;2.40;2.15;;;17.30;68.50;;;;;;5092622;28;20045;-53
2022/09/18 11:36:01;;;;;;;3.30;1.90;;;17.40;67.20;;;;;;5091250;28;20081;-52
2022/09/18 11:38:30;;;;;;;6.72;1.90;;;17.50;67.00;;;;;;5091331;28;20044;-48
2022/09/18 11:41:01;;;;;;;3.92;1.98;;;17.50;66.50;;;;;;5091519;28;20046;-50
2022/09/18 11:43:37;;;;;;;1.58;1.45;;;17.60;66.70;;;;;;5094894;28;20068;-52
2022/09/18 11:46:30;;;;;;;3.53;1.67;;;17.60;66.60;;;;;;5096021;28;20043;-51
2022/09/18 11:49:09;;;;;;;2.30;1.80;;;17.70;66.50;;;;;;5088138;28;20095;-48
2022/09/18 11:51:48;;;;;;;4.18;1.98;;;17.70;66.30;;;;;;5088769;28;20036;-50
2022/09/18 11:54:35;;;;;;;3.45;1.85;;;17.80;66.00;;;;;;5091212;28;20587;-49
2022/09/18 11:57:12;;;;;;;2.28;1.58;;;17.90;65.60;;;;;;5092332;28;20040;-50
2022/09/18 11:59:46;;;;;;;2.13;1.60;;;17.90;65.20;;;;;;5091090;28;20419;-49
2022/09/18 12:02:25;;;;;;;3.65;1.42;;;17.90;65.20;;;;;;5093528;28;20051;-51
2022/09/18 12:05:05;;;;;;;2.90;1.90;;;17.90;63.90;;;;;;5113401;27;20066;-50
2022/09/18 12:07:44;;;;;;;4.38;1.65;;;17.90;64.30;;;;;;5086164;28;20040;-52
2022/09/18 12:10:35;;;;;;;2.75;2.00;;;17.80;64.50;;;;;;5071582;28;20048;-53
2022/09/18 12:13:20;;;;;;;1.85;1.35;;;17.80;65.10;;;;;;5070168;28;20497;-49
2022/09/18 12:15:57;;;;;;;2.13;1.80;;;17.70;65.40;;;;;;5075896;28;20118;-50
2022/09/18 12:18:36;;;;;;;3.55;1.60;;;17.60;65.40;;;;;;5080198;28;20038;-49
2022/09/18 12:21:13;;;;;;;4.35;2.40;;;17.40;67.00;;;;;;5082604;28;20050;-51
2022/09/18 12:23:40;;;;;;;4.97;2.35;;;17.30;67.70;;;;;;5086328;28;20630;-49
2022/09/18 12:26:45;;;;;;;3.88;1.77;;;17.10;68.20;;;;;;5089220;28;20042;-50
2022/09/18 12:29:21;;;;;;;2.45;2.25;;;16.80;69.60;;;;;;5060032;28;20437;-51
2022/09/18 12:32:14;;;;;;;6.25;2.28;;;16.60;70.00;;;;;;5092119;28;20127;-48
2022/09/18 12:34:56;;;;;;;8.98;2.45;;;16.40;71.40;;;;;;5082185;28;20036;-48
2022/09/18 12:37:38;;;;;;;5.32;2.13;;;16.20;72.30;;;;;;5076247;28;20485;-49
2022/09/18 12:40:31;;;;;;;5.40;2.17;;;16.10;73.00;;;;;;5089197;28;20135;-46
2022/09/18 12:43:16;;;;;;;8.80;2.37;;;16.00;74.30;;;;;;5088045;28;20084;-47
2022/09/18 12:46:04;;;;;;;3.03;2.25;;;15.90;74.20;;;;;;5084985;28;20710;-49
2022/09/18 12:48:38;;;;;;;3.63;2.35;;;15.80;74.90;;;;;;5073130;28;20550;-47
2022/09/18 12:51:04;;;;;;;3.50;2.38;;;15.70;75.30;;;;;;5082538;28;20049;-52
2022/09/18 12:53:49;;;;;;;5.50;2.92;;;15.70;74.80;;;;;;5071226;28;20039;-52
2022/09/18 12:56:35;;;;;;;2.75;1.98;;;15.70;74.90;;;;;;5083543;28;20055;-53
2022/09/18 12:59:27;;;;;;;5.15;2.42;;;15.60;76.40;;;;;;5080130;28;20491;-51
2022/09/18 13:02:00;;;;;;;2.00;1.83;;;15.50;76.10;;;;;;5080581;28;20051;-50
2022/09/18 13:04:36;;;;;;;3.53;1.30;;;15.50;76.20;;;;;;5087397;28;20055;-49
2022/09/18 13:07:06;;;;;;;1.40;1.30;;;15.50;77.10;;;;;;5088824;28;20063;-49
2022/09/18 13:10:01;;;;;;;2.92;1.33;;;15.40;77.10;;;;;;5082828;28;20692;-50
2022/09/18 13:12:36;;;;;;;2.42;1.00;;;15.40;78.00;;;;;;5078566;28;20062;-52
2022/09/18 13:15:11;;;;;;;3.70;1.02;;;15.40;77.40;;;;;;5089698;28;20051;-50
2022/09/18 13:17:45;;;;;;;3.45;1.08;;;15.30;77.00;;;;;;5088623;28;20048;-50
2022/09/18 13:20:27;;;;;;;4.00;1.00;;;15.30;77.20;;;;;;5081605;28;20054;-52
2022/09/18 13:22:54;;;;;;;0.65;0.65;;;15.20;77.50;;;;;;5085773;28;20079;-49
2022/09/18 13:25:28;;;;;;;1.50;0.98;;;15.20;77.70;;;;;;5088683;28;20563;-50
2022/09/18 13:27:57;;;;;;;2.63;1.05;;;15.20;78.50;;;;;;5090853;28;20048;-48
2022/09/18 13:30:29;;;;;;;0.88;0.52;;;15.20;78.30;;;;;;5087990;28;20055;-49
2022/09/18 13:32:57;;;;;;;2.83;1.10;;;15.20;78.90;;;;;;5081570;28;20036;-50
2022/09/18 13:35:31;;;;;;;2.28;1.30;;;15.10;78.80;;;;;;5078227;28;20041;-49